createdAt,value
2019-05-05T00:02:17.242Z,93.11
2019-05-05T00:04:54.365Z,93.02
2019-05-05T00:07:26.754Z,92.99
2019-05-05T00:09:58.708Z,93.01
2019-05-05T00:12:31.130Z,92.91
2019-05-05T00:15:05.197Z,92.85
2019-05-05T00:17:36.303Z,92.92
2019-05-05T00:20:08.581Z,93.10
2019-05-05T00:22:39.279Z,93.25
2019-05-05T00:25:10.064Z,93.10
2019-05-05T00:27:40.768Z,92.94
2019-05-05T00:30:14.371Z,92.96
2019-05-05T00:32:45.192Z,93.02
2019-05-05T00:35:15.926Z,93.08
2019-05-05T00:37:46.790Z,93.13
2019-05-05T00:40:17.556Z,93.11
2019-05-05T00:42:50.850Z,93.03
2019-05-05T00:45:21.471Z,93.02
2019-05-05T00:47:54.529Z,92.93
2019-05-05T00:50:25.387Z,92.92
2019-05-05T00:52:56.064Z,92.87
2019-05-05T00:55:26.997Z,92.85
2019-05-05T00:57:57.563Z,92.83
2019-05-05T01:00:30.049Z,92.61
2019-05-05T01:03:00.838Z,92.29
2019-05-05T01:05:34.395Z,92.22
2019-05-05T01:08:06.984Z,92.04
2019-05-05T01:10:37.753Z,92.08
2019-05-05T01:13:08.575Z,92.02
2019-05-05T01:15:39.550Z,92.27
2019-05-05T01:18:10.250Z,92.51
2019-05-05T01:20:40.834Z,92.54
2019-05-05T01:23:14.887Z,93.04
2019-05-05T01:25:48.652Z,93.34
2019-05-05T01:28:17.912Z,93.29
2019-05-05T01:30:50.609Z,93.17
2019-05-05T01:33:39.046Z,92.91
2019-05-05T01:36:09.753Z,92.89
2019-05-05T01:38:44.526Z,92.85
2019-05-05T01:41:31.376Z,92.75
2019-05-05T01:44:02.098Z,92.43
2019-05-05T01:46:32.820Z,92.18
2019-05-05T01:49:05.394Z,92.19
2019-05-05T01:51:35.922Z,92.76
2019-05-05T01:54:06.866Z,92.65
2019-05-05T01:56:37.685Z,92.34
2019-05-05T01:59:08.309Z,92.49
2019-05-05T02:01:39.318Z,92.71
2019-05-05T02:04:10.298Z,92.98
2019-05-05T02:06:41.123Z,93.14
2019-05-05T02:09:11.734Z,92.98
2019-05-05T02:11:42.565Z,92.69
2019-05-05T02:14:15.423Z,92.51
2019-05-05T02:16:46.720Z,92.28
2019-05-05T02:19:17.832Z,92.16
2019-05-05T02:21:48.504Z,92.12
2019-05-05T02:24:19.108Z,92.13
2019-05-05T02:26:54.555Z,92.12
2019-05-05T02:29:30.946Z,92.30
2019-05-05T02:32:19.569Z,92.56
2019-05-05T02:34:56.186Z,92.82
2019-05-05T02:37:27.498Z,92.95
2019-05-05T02:40:03.291Z,92.89
2019-05-05T02:42:35.424Z,92.99
2019-05-05T02:45:07.665Z,93.15
2019-05-05T02:47:47.350Z,93.48
2019-05-05T02:50:18.775Z,93.90
2019-05-05T02:52:50.495Z,94.32
2019-05-05T02:55:23.548Z,94.58
2019-05-05T02:57:56.411Z,94.81
2019-05-05T03:00:29.521Z,94.93
2019-05-05T03:03:01.902Z,94.95
2019-05-05T03:05:34.103Z,94.80
2019-05-05T03:08:04.957Z,94.69
2019-05-05T03:10:36.156Z,94.49
2019-05-05T03:13:07.257Z,94.25
2019-05-05T03:15:55.001Z,94.07
2019-05-05T03:18:25.718Z,94.00
2019-05-05T03:21:04.536Z,94.00
2019-05-05T03:23:29.369Z,93.97
2019-05-05T03:26:00.124Z,94.16
2019-05-05T03:28:34.428Z,94.24
2019-05-05T03:31:05.311Z,93.90
2019-05-05T03:33:36.570Z,92.90
2019-05-05T03:36:08.067Z,91.96
2019-05-05T03:38:38.843Z,91.54
2019-05-05T03:41:13.595Z,91.74
2019-05-05T03:44:04.697Z,91.59
2019-05-05T03:46:36.764Z,91.62
2019-05-05T03:49:07.568Z,91.69
2019-05-05T03:51:38.844Z,91.43
2019-05-05T03:54:09.971Z,91.19
2019-05-05T03:56:41.160Z,90.89
2019-05-05T03:59:14.161Z,90.80
2019-05-05T04:01:46.946Z,90.70
2019-05-05T04:04:28.471Z,90.38
2019-05-05T04:07:00.875Z,90.13
2019-05-05T04:09:31.656Z,90.02
2019-05-05T04:12:04.264Z,89.61
2019-05-05T04:14:34.938Z,89.21
2019-05-05T04:17:24.381Z,88.91
2019-05-05T04:19:56.192Z,88.55
2019-05-05T04:22:26.936Z,88.58
2019-05-05T04:24:57.625Z,88.64
2019-05-05T04:27:28.371Z,88.09
2019-05-05T04:29:59.111Z,87.95
2019-05-05T04:32:29.861Z,87.85
2019-05-05T04:35:00.677Z,88.04
2019-05-05T04:37:31.397Z,87.67
2019-05-05T04:40:04.049Z,87.72
2019-05-05T04:42:34.842Z,87.84
2019-05-05T04:45:08.422Z,87.62
2019-05-05T04:47:55.951Z,87.40
2019-05-05T04:50:45.188Z,87.49
2019-05-05T04:53:19.329Z,87.63
2019-05-05T04:55:51.182Z,87.38
2019-05-05T04:58:24.126Z,87.82
2019-05-05T05:00:54.822Z,87.90
2019-05-05T05:03:34.648Z,88.38
2019-05-05T05:06:14.647Z,87.90
2019-05-05T05:08:46.150Z,88.09
2019-05-05T05:11:17.405Z,88.45
2019-05-05T05:13:48.158Z,88.05
2019-05-05T05:16:18.914Z,88.47
2019-05-05T05:18:49.540Z,88.28
2019-05-05T05:21:20.289Z,88.17
2019-05-05T05:23:50.977Z,88.06
2019-05-05T05:26:24.234Z,88.03
2019-05-05T05:28:54.978Z,88.20
2019-05-05T05:31:25.800Z,88.24
2019-05-05T05:33:56.394Z,87.61
2019-05-05T05:36:27.013Z,87.76
2019-05-05T05:38:59.260Z,87.25
2019-05-05T05:41:48.357Z,87.42
2019-05-05T05:44:29.501Z,87.00
2019-05-05T05:47:03.593Z,87.92
2019-05-05T05:49:35.854Z,86.76
2019-05-05T05:52:16.272Z,86.81
2019-05-05T05:54:38.879Z,85.79
2019-05-05T05:57:09.549Z,85.19
2019-05-05T05:59:40.557Z,86.07
2019-05-05T06:02:15.394Z,85.31
2019-05-05T06:04:44.775Z,86.20
2019-05-05T06:07:15.751Z,86.44
2019-05-05T06:09:46.442Z,86.36
2019-05-05T06:12:17.171Z,85.16
2019-05-05T06:14:47.801Z,83.60
2019-05-05T06:17:18.830Z,82.99
2019-05-05T06:19:49.521Z,83.02
2019-05-05T06:22:28.467Z,82.40
2019-05-05T06:24:54.116Z,83.59
2019-05-05T06:27:25.467Z,82.41
2019-05-05T06:29:56.239Z,82.40
2019-05-05T06:32:27.464Z,80.66
2019-05-05T06:34:58.139Z,80.34
2019-05-05T06:37:29.004Z,80.31
2019-05-05T06:40:01.358Z,78.10
2019-05-05T06:42:36.333Z,78.45
2019-05-05T06:45:09.929Z,76.85
2019-05-05T06:47:42.107Z,77.85
2019-05-05T06:50:14.048Z,77.25
2019-05-05T06:52:47.120Z,77.77
2019-05-05T06:55:17.519Z,77.21
2019-05-05T06:57:48.253Z,77.45
2019-05-05T07:00:19.571Z,75.68
2019-05-05T07:02:51.131Z,75.33
2019-05-05T07:05:23.531Z,72.36
2019-05-05T07:07:54.493Z,72.84
2019-05-05T07:10:26.641Z,70.29
2019-05-05T07:12:57.286Z,66.03
2019-05-05T07:15:28.026Z,67.58
2019-05-05T07:17:58.732Z,66.10
2019-05-05T07:20:30.415Z,67.40
2019-05-05T07:23:03.033Z,62.16
2019-05-05T07:25:41.446Z,57.82
2019-05-05T07:28:06.811Z,53.24
2019-05-05T07:30:37.933Z,53.08
2019-05-05T07:33:08.975Z,61.38
2019-05-05T07:35:54.920Z,57.07
2019-05-05T07:38:14.073Z,50.78
2019-05-05T07:40:46.261Z,51.33
2019-05-05T07:43:17.430Z,48.99
2019-05-05T07:45:48.664Z,50.36
2019-05-05T07:48:19.229Z,47.52
2019-05-05T07:50:59.713Z,55.13
2019-05-05T07:53:24.486Z,58.37
2019-05-05T07:55:55.055Z,60.15
2019-05-05T07:58:25.736Z,50.41
2019-05-05T08:00:57.618Z,47.73
2019-05-05T08:03:30.259Z,48.10
2019-05-05T08:06:01.139Z,50.82
2019-05-05T08:08:33.502Z,48.44
2019-05-05T08:11:05.245Z,47.93
2019-05-05T08:13:35.943Z,47.97
2019-05-05T08:16:25.041Z,48.51
2019-05-05T08:19:06.441Z,46.29
2019-05-05T08:21:37.122Z,49.72
2019-05-05T08:24:09.386Z,56.50
2019-05-05T08:26:44.067Z,48.52
2019-05-05T08:29:31.680Z,42.77
2019-05-05T08:32:09.725Z,45.35
2019-05-05T08:34:53.945Z,47.17
2019-05-05T08:37:14.613Z,47.13
2019-05-05T08:39:45.479Z,40.40
2019-05-05T08:42:16.613Z,42.64
2019-05-05T08:44:47.562Z,45.39
2019-05-05T08:47:18.277Z,43.44
2019-05-05T08:49:49.113Z,43.79
2019-05-05T08:52:19.876Z,45.25
2019-05-05T08:54:53.973Z,46.68
2019-05-05T08:57:24.534Z,47.09
2019-05-05T08:59:55.364Z,45.01
2019-05-05T09:02:26.077Z,42.48
2019-05-05T09:04:57.290Z,44.54
2019-05-05T09:07:28.075Z,40.52
2019-05-05T09:09:58.688Z,39.67
2019-05-05T09:12:29.510Z,45.24
2019-05-05T09:15:00.539Z,43.98
2019-05-05T09:17:33.667Z,43.94
2019-05-05T09:20:05.426Z,44.67
2019-05-05T09:22:36.205Z,44.59
2019-05-05T09:25:17.674Z,49.00
2019-05-05T09:27:59.352Z,44.57
2019-05-05T09:30:40.230Z,47.76
2019-05-05T09:33:11.330Z,43.66
2019-05-05T09:35:43.726Z,44.06
2019-05-05T09:38:14.833Z,43.32
2019-05-05T09:40:46.008Z,43.03
2019-05-05T09:43:17.310Z,44.29
2019-05-05T09:45:49.081Z,41.95
2019-05-05T09:48:20.525Z,43.35
2019-05-05T09:50:51.209Z,42.97
2019-05-05T09:53:23.769Z,43.03
2019-05-05T09:55:55.137Z,39.95
2019-05-05T09:58:25.953Z,42.41
2019-05-05T10:00:57.774Z,44.45
2019-05-05T10:03:29.136Z,44.72
2019-05-05T10:06:00.155Z,45.77
2019-05-05T10:08:30.736Z,43.10
2019-05-05T10:11:01.487Z,41.97
2019-05-05T10:13:33.611Z,40.52
2019-05-05T10:16:05.509Z,42.03
2019-05-05T10:18:36.720Z,41.94
2019-05-05T10:21:07.374Z,42.48
2019-05-05T10:23:39.729Z,43.58
2019-05-05T10:26:14.870Z,47.29
2019-05-05T10:28:45.675Z,46.28
2019-05-05T10:31:16.590Z,43.97
2019-05-05T10:33:48.955Z,44.97
2019-05-05T10:36:19.642Z,42.18
2019-05-05T10:38:55.173Z,40.24
2019-05-05T10:41:26.452Z,41.92
2019-05-05T10:43:57.133Z,42.04
2019-05-05T10:46:28.026Z,42.62
2019-05-05T10:48:59.915Z,41.88
2019-05-05T10:51:30.792Z,41.01
2019-05-05T10:54:04.056Z,41.77
2019-05-05T10:56:35.531Z,38.75
2019-05-05T10:59:06.257Z,39.46
2019-05-05T11:01:37.126Z,39.34
2019-05-05T11:04:08.055Z,38.32
2019-05-05T11:06:40.612Z,36.27
2019-05-05T11:09:13.844Z,39.75
2019-05-05T11:11:44.653Z,39.35
2019-05-05T11:14:15.894Z,41.51
2019-05-05T11:16:46.543Z,40.53
2019-05-05T11:19:17.492Z,40.23
2019-05-05T11:21:48.222Z,38.66
2019-05-05T11:24:18.835Z,34.86
2019-05-05T11:26:49.627Z,35.82
2019-05-05T11:29:21.692Z,37.91
2019-05-05T11:31:55.401Z,37.91
2019-05-05T11:34:27.511Z,38.17
2019-05-05T11:36:59.836Z,37.00
2019-05-05T11:39:31.041Z,37.38
2019-05-05T11:42:04.250Z,37.21
2019-05-05T11:44:35.028Z,37.21
2019-05-05T11:47:06.244Z,37.15
2019-05-05T11:49:37.483Z,37.15
2019-05-05T11:52:08.454Z,35.87
2019-05-05T11:54:39.973Z,39.84
2019-05-05T11:57:10.701Z,40.69
2019-05-05T11:59:41.974Z,35.38
2019-05-05T12:02:14.022Z,35.08
2019-05-05T12:04:45.036Z,39.09
2019-05-05T12:07:16.531Z,39.13
2019-05-05T12:09:48.967Z,33.89
2019-05-05T12:12:19.611Z,35.34
2019-05-05T12:14:53.726Z,34.56
2019-05-05T12:17:36.504Z,33.81
2019-05-05T12:20:10.146Z,33.33
2019-05-05T12:22:41.054Z,32.86
2019-05-05T12:25:29.930Z,34.14
2019-05-05T12:28:04.410Z,34.04
2019-05-05T12:30:35.870Z,36.05
2019-05-05T12:33:07.229Z,34.28
2019-05-05T12:35:37.978Z,34.28
2019-05-05T12:38:08.715Z,35.29
2019-05-05T12:40:39.801Z,36.03
2019-05-05T12:43:14.188Z,35.04
2019-05-05T12:45:48.528Z,35.04
2019-05-05T12:48:34.490Z,35.48
2019-05-05T12:51:05.791Z,35.76
2019-05-05T12:53:38.606Z,35.75
2019-05-05T12:56:11.490Z,36.16
2019-05-05T12:58:44.003Z,34.39
2019-05-05T13:01:36.153Z,34.93
2019-05-05T13:04:07.170Z,35.62
2019-05-05T13:06:38.314Z,35.14
2019-05-05T13:09:09.464Z,35.93
2019-05-05T13:11:40.088Z,37.25
2019-05-05T13:14:11.044Z,35.60
2019-05-05T13:16:52.374Z,36.18
2019-05-05T13:19:31.741Z,35.99
2019-05-05T13:22:13.606Z,37.45
2019-05-05T13:24:48.949Z,36.70
2019-05-05T13:27:39.517Z,35.98
2019-05-05T13:30:18.806Z,40.42
2019-05-05T13:32:49.978Z,36.48
2019-05-05T13:35:23.441Z,36.93
2019-05-05T13:37:54.951Z,35.98
2019-05-05T13:40:26.298Z,37.38
2019-05-05T13:42:57.656Z,35.01
2019-05-05T13:45:50.386Z,36.33
2019-05-05T13:48:22.694Z,33.40
2019-05-05T13:51:00.564Z,36.61
2019-05-05T13:53:34.102Z,35.09
2019-05-05T13:56:11.955Z,34.06
2019-05-05T13:58:40.130Z,35.20
2019-05-05T14:01:14.538Z,33.20
2019-05-05T14:03:45.560Z,32.01
2019-05-05T14:06:17.096Z,34.30
2019-05-05T14:08:48.993Z,33.54
2019-05-05T14:11:22.154Z,35.84
2019-05-05T14:13:54.110Z,33.47
2019-05-05T14:16:25.681Z,31.37
2019-05-05T14:18:56.639Z,32.92
2019-05-05T14:21:27.634Z,30.59
2019-05-05T14:24:09.821Z,32.21
2019-05-05T14:26:41.955Z,32.05
2019-05-05T14:29:15.936Z,29.20
2019-05-05T14:31:52.069Z,29.16
2019-05-05T14:34:25.597Z,30.11
2019-05-05T14:37:01.780Z,31.95
2019-05-05T14:39:34.113Z,29.34
2019-05-05T14:42:06.324Z,28.24
2019-05-05T14:44:37.657Z,29.52
2019-05-05T14:47:09.093Z,28.69
2019-05-05T14:49:41.152Z,28.56
2019-05-05T14:52:13.675Z,27.40
2019-05-05T14:54:45.209Z,28.98
2019-05-05T14:57:17.429Z,28.69
2019-05-05T14:59:48.524Z,30.30
2019-05-05T15:02:19.763Z,31.48
2019-05-05T15:04:53.699Z,30.29
2019-05-05T15:07:44.546Z,31.73
2019-05-05T15:10:34.363Z,30.96
2019-05-05T15:13:08.592Z,32.31
2019-05-05T15:15:39.781Z,31.67
2019-05-05T15:18:14.636Z,31.67
2019-05-05T15:20:46.624Z,31.74
2019-05-05T15:23:18.355Z,32.44
2019-05-05T15:25:49.475Z,33.19
2019-05-05T15:28:20.991Z,33.11
2019-05-05T15:30:54.524Z,34.04
2019-05-05T15:33:26.508Z,35.42
2019-05-05T15:35:57.264Z,34.29
2019-05-05T15:38:28.024Z,33.15
2019-05-05T15:40:58.848Z,33.06
2019-05-05T15:43:30.066Z,29.98
2019-05-05T15:46:04.533Z,31.84
2019-05-05T15:48:35.814Z,29.79
2019-05-05T15:51:07.141Z,32.01
2019-05-05T15:53:37.826Z,32.41
2019-05-05T15:56:10.554Z,32.91
2019-05-05T15:58:43.398Z,32.91
2019-05-05T16:01:14.367Z,33.43
2019-05-05T16:03:45.587Z,33.83
2019-05-05T16:06:16.343Z,33.32
2019-05-05T16:08:47.210Z,33.17
2019-05-05T16:11:18.713Z,35.62
2019-05-05T16:13:51.091Z,31.35
2019-05-05T16:16:29.555Z,36.39
2019-05-05T16:19:08.476Z,32.78
2019-05-05T16:21:40.966Z,34.24
2019-05-05T16:24:14.032Z,33.36
2019-05-05T16:26:44.825Z,32.10
2019-05-05T16:29:15.629Z,31.60
2019-05-05T16:31:49.098Z,30.86
2019-05-05T16:34:20.073Z,31.62
2019-05-05T16:36:56.669Z,32.03
2019-05-05T16:39:26.765Z,31.96
2019-05-05T16:41:57.802Z,33.81
2019-05-05T16:44:28.881Z,31.13
2019-05-05T16:46:59.871Z,30.95
2019-05-05T16:49:30.911Z,30.13
2019-05-05T16:52:04.075Z,32.82
2019-05-05T16:54:37.236Z,30.05
2019-05-05T16:57:08.538Z,31.76
2019-05-05T16:59:39.713Z,29.42
2019-05-05T17:02:10.286Z,30.24
2019-05-05T17:04:43.344Z,28.75
2019-05-05T17:07:14.322Z,30.52
2019-05-05T17:09:46.605Z,28.79
2019-05-05T17:12:18.249Z,30.04
2019-05-05T17:14:54.419Z,30.91
2019-05-05T17:17:44.449Z,30.34
2019-05-05T17:20:19.641Z,31.94
2019-05-05T17:22:57.874Z,31.25
2019-05-05T17:25:28.792Z,31.44
2019-05-05T17:28:00.180Z,32.70
2019-05-05T17:30:31.566Z,32.62
2019-05-05T17:33:03.796Z,31.51
2019-05-05T17:35:36.295Z,33.57
2019-05-05T17:38:13.754Z,32.54
2019-05-05T17:40:46.377Z,31.96
2019-05-05T17:43:37.132Z,32.10
2019-05-05T17:46:24.223Z,33.25
2019-05-05T17:49:04.676Z,33.85
2019-05-05T17:51:40.377Z,34.01
2019-05-05T17:54:24.090Z,33.54
2019-05-05T17:56:55.131Z,35.06
2019-05-05T17:59:29.355Z,36.21
2019-05-05T18:02:00.338Z,33.29
2019-05-05T18:04:33.703Z,35.81
2019-05-05T18:07:06.043Z,35.38
2019-05-05T18:09:56.196Z,36.09
2019-05-05T18:12:33.753Z,36.94
2019-05-05T18:15:08.998Z,36.77
2019-05-05T18:17:40.172Z,37.32
2019-05-05T18:20:12.574Z,37.57
2019-05-05T18:22:44.502Z,37.64
2019-05-05T18:25:17.178Z,38.34
2019-05-05T18:27:48.293Z,39.73
2019-05-05T18:30:19.632Z,41.07
2019-05-05T18:32:53.405Z,41.58
2019-05-05T18:35:27.001Z,40.70
2019-05-05T18:37:59.572Z,39.81
2019-05-05T18:40:30.813Z,41.22
2019-05-05T18:43:05.933Z,40.73
2019-05-05T18:45:38.786Z,41.64
2019-05-05T18:48:11.697Z,42.88
2019-05-05T18:50:42.643Z,41.77
2019-05-05T18:53:15.158Z,41.27
2019-05-05T18:55:48.535Z,42.07
2019-05-05T18:58:27.185Z,42.57
2019-05-05T19:00:57.414Z,42.86
2019-05-05T19:03:45.278Z,43.18
2019-05-05T19:06:18.387Z,43.29
2019-05-05T19:08:54.545Z,43.31
2019-05-05T19:11:26.050Z,43.31
2019-05-05T19:13:58.035Z,43.34
2019-05-05T19:16:31.407Z,42.40
2019-05-05T19:19:04.478Z,42.84
2019-05-05T19:21:38.698Z,43.80
2019-05-05T19:24:09.502Z,44.12
2019-05-05T19:26:44.028Z,43.24
2019-05-05T19:29:15.879Z,44.13
2019-05-05T19:31:46.994Z,44.80
2019-05-05T19:34:18.318Z,45.07
2019-05-05T19:36:50.047Z,46.21
2019-05-05T19:39:20.716Z,45.16
2019-05-05T19:41:54.140Z,45.36
2019-05-05T19:44:26.115Z,45.57
2019-05-05T19:47:00.279Z,46.36
2019-05-05T19:49:31.286Z,46.62
2019-05-05T19:52:05.866Z,46.84
2019-05-05T19:54:37.010Z,46.38
2019-05-05T19:57:07.886Z,46.42
2019-05-05T19:59:41.381Z,47.20
2019-05-05T20:02:12.935Z,47.74
2019-05-05T20:04:44.702Z,47.57
2019-05-05T20:07:16.986Z,48.88
2019-05-05T20:09:50.243Z,47.69
2019-05-05T20:12:20.851Z,48.02
2019-05-05T20:14:51.701Z,49.21
2019-05-05T20:17:28.586Z,48.91
2019-05-05T20:19:59.953Z,50.02
2019-05-05T20:22:30.808Z,50.47
2019-05-05T20:25:07.316Z,50.39
2019-05-05T20:27:38.254Z,50.01
2019-05-05T20:30:11.087Z,49.54
2019-05-05T20:32:45.122Z,49.74
2019-05-05T20:35:21.250Z,50.69
2019-05-05T20:37:54.232Z,50.11
2019-05-05T20:40:26.904Z,50.91
2019-05-05T20:42:58.378Z,52.46
2019-05-05T20:45:31.096Z,52.77
2019-05-05T20:48:04.544Z,52.85
2019-05-05T20:50:35.743Z,53.28
2019-05-05T20:53:07.193Z,52.79
2019-05-05T20:55:41.105Z,52.91
2019-05-05T20:58:13.982Z,54.89
2019-05-05T21:00:46.119Z,57.20
2019-05-05T21:03:17.298Z,56.67
2019-05-05T21:05:48.147Z,57.71
2019-05-05T21:08:19.259Z,56.08
2019-05-05T21:10:50.090Z,56.76
2019-05-05T21:13:20.837Z,58.86
2019-05-05T21:15:53.756Z,59.17
2019-05-05T21:18:27.094Z,62.36
2019-05-05T21:21:01.869Z,63.48
2019-05-05T21:23:38.313Z,64.21
2019-05-05T21:26:13.853Z,64.87
2019-05-05T21:28:44.515Z,65.75
2019-05-05T21:31:15.489Z,67.26
2019-05-05T21:33:48.882Z,67.99
2019-05-05T21:36:19.894Z,67.99
2019-05-05T21:38:51.748Z,69.52
2019-05-05T21:41:24.468Z,69.99
2019-05-05T21:43:57.906Z,69.83
2019-05-05T21:46:28.722Z,69.68
2019-05-05T21:48:59.602Z,69.67
2019-05-05T21:51:39.876Z,69.97
2019-05-05T21:54:29.896Z,70.11
2019-05-05T21:57:04.369Z,70.47
2019-05-05T21:59:35.514Z,70.74
2019-05-05T22:02:06.491Z,70.10
2019-05-05T22:04:37.489Z,71.31
2019-05-05T22:07:08.446Z,70.34
2019-05-05T22:09:39.452Z,71.16
2019-05-05T22:12:10.270Z,70.87
2019-05-05T22:14:43.905Z,70.76
2019-05-05T22:17:14.899Z,73.12
2019-05-05T22:19:56.683Z,74.87
2019-05-05T22:22:29.004Z,75.25
2019-05-05T22:25:00.262Z,78.44
2019-05-05T22:27:31.640Z,79.42
2019-05-05T22:30:09.926Z,77.99
2019-05-05T22:32:35.419Z,77.79
2019-05-05T22:35:07.630Z,77.18
2019-05-05T22:37:38.708Z,77.96
2019-05-05T22:40:13.833Z,76.11
2019-05-05T22:42:46.986Z,76.39
2019-05-05T22:45:17.927Z,75.02
2019-05-05T22:47:48.892Z,76.44
2019-05-05T22:50:19.863Z,76.65
2019-05-05T22:52:50.826Z,77.26
2019-05-05T22:55:21.822Z,76.55
2019-05-05T22:57:54.390Z,75.52
2019-05-05T23:00:29.446Z,76.05
2019-05-05T23:03:07.938Z,76.28
2019-05-05T23:05:40.682Z,77.24
2019-05-05T23:08:13.606Z,77.57
2019-05-05T23:10:44.677Z,78.04
2019-05-05T23:13:16.193Z,78.03
2019-05-05T23:15:48.817Z,77.65
2019-05-05T23:18:25.715Z,78.18
2019-05-05T23:21:01.325Z,77.66
2019-05-05T23:23:46.539Z,80.10
2019-05-05T23:26:19.271Z,80.70
2019-05-05T23:28:50.278Z,80.09
2019-05-05T23:31:21.311Z,81.02
2019-05-05T23:33:54.882Z,79.37
2019-05-05T23:36:25.882Z,79.82
2019-05-05T23:38:58.180Z,80.51
2019-05-05T23:41:29.514Z,80.25
2019-05-05T23:44:00.642Z,80.22
2019-05-05T23:46:34.666Z,80.43
2019-05-05T23:49:04.988Z,80.52
2019-05-05T23:51:35.741Z,80.59
2019-05-05T23:54:06.776Z,81.11
2019-05-05T23:56:37.707Z,82.47
2019-05-05T23:59:08.515Z,84.35
